Time;durP1;ratioP1;P1;durP2;ratioP2;P2;SDS_P1;SDS_P2;PMS_P1;PMS_P2;Temp;Humidity;BMP_temperature;BMP_pressure;BME280_temperature;BME280_humidity;BME280_pressure;Samples;Min_cycle;Max_cycle;Signal;HPM_P1;HPM_P2
2024/04/26 00:01:47;;;;;;;42.45;14.68;;;;;;;14.42;61.39;99277.94;5322224;26;20108;-75
2024/04/26 00:04:13;;;;;;;38.22;14.27;;;;;;;14.37;61.47;99280.72;5368808;26;20404;-73
2024/04/26 00:06:42;;;;;;;37.38;14.50;;;;;;;14.42;62.02;99302.38;5377240;26;20137;-76
2024/04/26 00:09:08;;;;;;;34.42;14.40;;;;;;;14.36;62.19;99283.38;5379165;26;20476;-76
2024/04/26 00:11:38;;;;;;;42.15;14.55;;;;;;;14.43;62.59;99297.97;5344431;26;20466;-75
2024/04/26 00:14:04;;;;;;;32.03;14.85;;;;;;;14.23;62.08;99262.00;5371560;26;20000;-79
2024/04/26 00:16:30;;;;;;;34.67;15.48;;;;;;;14.05;62.37;99242.50;5346761;26;20081;-77
2024/04/26 00:18:58;;;;;;;35.85;15.10;;;;;;;14.21;62.65;99267.25;5374069;26;20486;-76
2024/04/26 00:21:24;;;;;;;32.35;13.23;;;;;;;14.24;62.98;99261.94;5374193;26;20015;-76
2024/04/26 00:23:50;;;;;;;27.17;12.57;;;;;;;14.21;63.24;99261.19;5317497;26;20020;-76
2024/04/26 00:26:16;;;;;;;37.17;14.18;;;;;;;14.09;63.39;99241.50;5322464;26;20123;-75
2024/04/26 00:28:43;;;;;;;32.40;13.85;;;;;;;14.35;63.58;99273.81;5379114;26;20039;-76
2024/04/26 00:31:09;;;;;;;41.08;13.48;;;;;;;14.31;63.40;99273.94;5349926;26;20003;-75
2024/04/26 00:33:37;;;;;;;31.27;13.57;;;;;;;14.10;63.43;99238.00;5376010;26;20013;-77
2024/04/26 00:36:04;;;;;;;32.42;14.50;;;;;;;14.24;63.11;99279.38;5351099;26;20007;-76
2024/04/26 00:38:30;;;;;;;31.70;14.20;;;;;;;13.87;63.29;99226.50;5378226;26;20010;-76
2024/04/26 00:40:56;;;;;;;32.40;13.10;;;;;;;13.99;63.80;99260.09;5347494;26;20035;-79
2024/04/26 00:43:22;;;;;;;34.63;13.60;;;;;;;13.79;63.73;99229.34;5342110;26;20470;-79
2024/04/26 00:45:48;;;;;;;26.48;12.45;;;;;;;13.96;64.18;99256.75;5324155;26;20377;-78
2024/04/26 00:48:33;;;;;;;25.48;11.25;;;;;;;14.06;64.38;99275.63;5317657;26;19999;-78
2024/04/26 00:51:02;;;;;;;36.50;12.57;;;;;;;13.99;64.44;99259.25;5379333;26;19996;-77
2024/04/26 00:53:29;;;;;;;25.27;11.43;;;;;;;13.75;64.34;99227.75;5353751;26;20098;-80
2024/04/26 00:55:56;;;;;;;30.80;10.63;;;;;;;13.57;65.01;99200.41;5322234;26;20006;-78
2024/04/26 00:58:22;;;;;;;22.90;10.00;;;;;;;13.92;64.85;99265.59;5350163;26;20010;-77
2024/04/26 01:00:49;;;;;;;25.90;10.18;;;;;;;13.97;65.15;99258.44;5373022;26;19999;-77
2024/04/26 01:03:16;;;;;;;32.30;10.05;;;;;;;13.90;65.29;99241.22;5344855;26;20018;-76
2024/04/26 01:05:42;;;;;;;20.05;9.18;;;;;;;13.90;65.33;99225.53;5349876;26;20431;-78
2024/04/26 01:08:12;;;;;;;30.80;10.90;;;;;;;13.82;65.23;99213.56;5348716;26;20015;-77
2024/04/26 01:10:38;;;;;;;18.73;9.90;;;;;;;13.98;65.06;99234.00;5350481;26;20019;-74
2024/04/26 01:13:06;;;;;;;34.20;12.25;;;;;;;13.98;64.83;99237.47;5369205;26;20006;-76
2024/04/26 01:15:32;;;;;;;28.52;11.80;;;;;;;13.80;64.98;99204.91;5375000;26;20015;-76
2024/04/26 01:17:58;;;;;;;30.25;15.43;;;;;;;14.00;65.16;99225.19;5369780;26;19999;-75
2024/04/26 01:20:26;;;;;;;31.58;15.57;;;;;;;13.88;65.11;99193.34;5375989;26;20000;-76
2024/04/26 01:22:54;;;;;;;45.20;14.82;;;;;;;14.27;64.91;99247.88;5352514;26;20071;-77
2024/04/26 01:25:21;;;;;;;29.50;14.80;;;;;;;13.78;64.70;99177.09;5377814;26;20004;-78
2024/04/26 01:27:47;;;;;;;48.88;14.70;;;;;;;14.03;64.71;99216.38;5383174;26;20006;-78
2024/04/26 01:30:16;;;;;;;31.00;13.35;;;;;;;13.93;64.48;99201.91;5376407;26;20113;-78
2024/04/26 01:32:43;;;;;;;41.22;13.07;;;;;;;13.93;64.66;99201.91;5349804;26;20007;-80
2024/04/26 01:35:09;;;;;;;38.35;13.32;;;;;;;14.21;64.30;99240.25;5337143;26;20476;-80
2024/04/26 01:37:35;;;;;;;41.97;15.25;;;;;;;14.21;64.23;99240.25;5366625;26;20392;-77
2024/04/26 01:40:01;;;;;;;35.30;13.85;;;;;;;14.19;64.07;99236.84;5348366;26;20000;-76
2024/04/26 01:42:30;;;;;;;31.10;13.57;;;;;;;14.13;63.91;99233.50;5342699;26;20032;-76
2024/04/26 01:44:56;;;;;;;36.80;14.20;;;;;;;14.22;63.90;99234.13;5370343;26;20018;-76
2024/04/26 01:47:22;;;;;;;35.92;13.55;;;;;;;13.83;64.38;99167.34;5341986;26;20497;-76
2024/04/26 01:49:48;;;;;;;26.33;12.02;;;;;;;14.02;64.54;99206.81;5378953;26;19999;-75
2024/04/26 01:52:16;;;;;;;34.90;14.02;;;;;;;14.14;63.92;99237.84;5404901;26;20059;-75
2024/04/26 01:54:42;;;;;;;48.78;15.35;;;;;;;13.85;63.95;99195.16;5399905;26;19997;-75
2024/04/26 01:57:08;;;;;;;43.22;14.23;;;;;;;13.95;63.73;99221.03;5406822;26;20003;-74
2024/04/26 01:59:35;;;;;;;40.05;15.20;;;;;;;14.07;63.59;99235.47;5403219;26;20008;-76
2024/04/26 02:02:01;;;;;;;41.50;13.70;;;;;;;13.88;63.44;99216.88;5375768;26;20004;-74
2024/04/26 02:04:27;;;;;;;52.30;15.27;;;;;;;14.06;63.65;99252.91;5347982;26;20010;-76
2024/04/26 02:06:53;;;;;;;38.28;15.30;;;;;;;14.07;63.54;99238.94;5340878;26;20342;-74
2024/04/26 02:09:19;;;;;;;37.08;15.65;;;;;;;13.89;63.62;99223.84;5376301;26;20018;-75
2024/04/26 02:11:46;;;;;;;36.58;14.13;;;;;;;13.73;64.31;99182.50;5373356;26;20008;-76
2024/04/26 02:14:12;;;;;;;47.33;17.98;;;;;;;13.79;63.70;99190.13;5377406;26;20003;-77
2024/04/26 02:16:38;;;;;;;41.05;18.30;;;;;;;13.93;64.00;99204.53;5380504;26;20398;-76
2024/04/26 02:19:04;;;;;;;41.90;18.27;;;;;;;14.07;64.09;99232.84;5346244;26;20019;-76
2024/04/26 02:21:30;;;;;;;34.25;17.15;;;;;;;13.66;64.27;99170.50;5345775;26;20014;-74
2024/04/26 02:23:56;;;;;;;62.17;15.13;;;;;;;13.85;64.19;99189.09;5367281;26;20014;-75
2024/04/26 02:26:29;;;;;;;51.40;16.00;;;;;;;14.18;63.94;99240.34;5346198;26;20004;-74
2024/04/26 02:28:56;;;;;;;71.00;17.75;;;;;;;14.26;63.83;99248.78;5344453;26;20015;-76
2024/04/26 02:31:23;;;;;;;65.63;17.48;;;;;;;14.05;63.42;99209.34;5380164;26;20004;-77
2024/04/26 02:33:52;;;;;;;56.33;16.83;;;;;;;14.08;63.55;99204.03;5325570;26;20007;-75
2024/04/26 02:36:18;;;;;;;72.15;18.70;;;;;;;14.25;63.41;99236.63;5354228;26;20035;-74
2024/04/26 02:38:45;;;;;;;62.60;17.38;;;;;;;14.31;63.57;99247.75;5378951;26;20009;-76
2024/04/26 02:41:11;;;;;;;35.20;15.32;;;;;;;14.36;63.53;99255.44;5349352;26;19999;-75
2024/04/26 02:43:40;;;;;;;31.17;15.30;;;;;;;14.29;63.03;99248.69;5407873;26;20008;-76
2024/04/26 02:46:13;;;;;;;35.15;17.15;;;;;;;14.06;63.42;99229.38;5386342;26;20040;-75
2024/04/26 02:48:40;;;;;;;28.10;14.70;;;;;;;14.23;63.38;99254.16;5403590;26;20030;-74
2024/04/26 02:51:10;;;;;;;33.42;12.85;;;;;;;14.16;64.20;99236.03;5392103;26;20043;-76
2024/04/26 02:53:36;;;;;;;25.70;12.95;;;;;;;14.19;64.13;99221.13;5350759;26;20012;-76
2024/04/26 02:56:03;;;;;;;30.42;11.80;;;;;;;14.37;64.82;99231.00;5380164;26;20011;-76
2024/04/26 02:58:29;;;;;;;19.17;11.07;;;;;;;14.64;64.58;99249.28;5382238;26;20015;-74
2024/04/26 03:00:55;;;;;;;25.70;11.30;;;;;;;14.64;64.20;99224.84;5322803;26;20108;-77
2024/04/26 03:03:21;;;;;;;18.13;9.75;;;;;;;14.73;63.85;99228.03;5322056;26;20016;-75
2024/04/26 03:05:47;;;;;;;24.48;11.50;;;;;;;14.80;63.93;99241.75;5352183;26;20028;-75
2024/04/26 03:08:13;;;;;;;29.77;12.65;;;;;;;14.79;64.04;99234.81;5291519;26;20025;-78
2024/04/26 03:10:40;;;;;;;31.90;12.73;;;;;;;14.89;63.59;99240.59;5347657;26;20007;-75
2024/04/26 03:13:09;;;;;;;22.40;11.95;;;;;;;14.81;63.53;99216.44;5349485;26;20576;-74
2024/04/26 03:15:35;;;;;;;33.83;14.00;;;;;;;15.07;63.39;99236.44;5340424;26;20081;-73
2024/04/26 03:18:01;;;;;;;25.80;13.10;;;;;;;15.15;63.35;99228.31;5376028;26;20091;-73
2024/04/26 03:20:27;;;;;;;26.27;12.38;;;;;;;15.33;62.95;99251.25;5407113;26;20041;-71
2024/04/26 03:22:55;;;;;;;31.33;13.80;;;;;;;15.09;62.71;99204.97;5400137;26;20174;-74
2024/04/26 03:25:22;;;;;;;25.35;11.10;;;;;;;15.17;62.24;99223.88;5344208;26;20004;-71
2024/04/26 03:27:48;;;;;;;22.27;11.25;;;;;;;15.26;62.94;99248.88;5406518;26;20004;-76
2024/04/26 03:30:14;;;;;;;27.25;12.65;;;;;;;14.88;62.59;99184.72;5371038;26;20118;-74
2024/04/26 03:32:43;;;;;;;28.35;12.98;;;;;;;15.24;63.06;99235.84;5349195;26;19999;-75
2024/04/26 03:35:09;;;;;;;28.67;13.02;;;;;;;15.07;62.89;99184.06;5316130;26;20014;-70
2024/04/26 03:37:37;;;;;;;27.17;12.85;;;;;;;15.43;62.70;99229.91;5375549;26;20004;-72
2024/04/26 03:40:04;;;;;;;24.15;12.07;;;;;;;15.49;62.65;99230.50;5402256;26;20568;-74
2024/04/26 03:42:33;;;;;;;26.92;11.88;;;;;;;15.55;62.50;99229.44;5353873;26;20045;-74
2024/04/26 03:44:59;;;;;;;23.52;11.20;;;;;;;15.58;61.67;99231.94;5367193;26;20037;-73
2024/04/26 03:47:26;;;;;;;23.88;11.00;;;;;;;15.58;62.15;99247.66;5351409;26;20408;-75
2024/04/26 03:49:52;;;;;;;22.08;10.93;;;;;;;15.71;61.88;99236.72;5346245;26;20018;-75
2024/04/26 03:52:18;;;;;;;21.67;10.82;;;;;;;15.56;62.39;99217.19;5371343;26;20000;-74
2024/04/26 03:54:44;;;;;;;22.35;10.45;;;;;;;15.68;62.23;99227.19;5348104;26;20010;-75
2024/04/26 03:57:10;;;;;;;22.35;10.77;;;;;;;15.75;62.24;99236.53;5373471;26;20027;-74
2024/04/26 03:59:36;;;;;;;18.77;10.23;;;;;;;15.81;62.46;99217.06;5345560;26;20003;-75
2024/04/26 04:02:03;;;;;;;21.00;11.43;;;;;;;16.04;61.90;99217.94;5347068;26;20069;-73
2024/04/26 04:04:29;;;;;;;29.27;11.27;;;;;;;16.10;61.63;99217.69;5399390;26;20975;-77
2024/04/26 04:06:55;;;;;;;29.83;10.80;;;;;;;15.91;60.74;99180.84;5400604;26;21118;-74
2024/04/26 04:09:21;;;;;;;28.98;10.85;;;;;;;16.29;61.57;99241.44;5371720;26;20010;-75
2024/04/26 04:11:47;;;;;;;24.63;11.40;;;;;;;16.25;61.41;99201.31;5349930;26;20007;-73
2024/04/26 04:14:13;;;;;;;22.85;10.85;;;;;;;16.54;60.52;99212.34;5373796;26;20095;-76
2024/04/26 04:16:39;;;;;;;23.80;10.13;;;;;;;16.64;60.34;99201.47;5370594;26;20007;-74
2024/04/26 04:19:05;;;;;;;24.90;10.25;;;;;;;16.98;60.67;99247.28;5400547;26;20470;-74
2024/04/26 04:21:31;;;;;;;23.08;10.82;;;;;;;16.81;59.97;99221.72;5349307;26;20080;-74
2024/04/26 04:23:57;;;;;;;27.80;10.70;;;;;;;16.89;60.08;99216.13;5319517;26;20019;-75
2024/04/26 04:26:23;;;;;;;22.25;10.00;;;;;;;16.87;59.36;99239.84;5378042;26;20004;-74
2024/04/26 04:28:50;;;;;;;20.58;10.15;;;;;;;16.56;59.59;99207.88;5364962;26;20013;-76
2024/04/26 04:31:16;;;;;;;20.98;9.38;;;;;;;16.56;59.80;99205.25;5350204;26;20376;-75
2024/04/26 04:33:42;;;;;;;23.17;9.98;;;;;;;16.66;59.95;99204.88;5398195;26;20018;-77
2024/04/26 04:36:08;;;;;;;21.45;10.10;;;;;;;16.49;59.79;99167.06;5348360;26;20018;-73
2024/04/26 04:38:34;;;;;;;15.05;8.48;;;;;;;16.73;59.83;99206.28;5402543;26;20011;-78
2024/04/26 04:41:00;;;;;;;20.67;8.80;;;;;;;16.86;60.28;99198.72;5349729;26;20014;-80
2024/04/26 04:43:26;;;;;;;19.13;9.48;;;;;;;16.96;59.70;99191.31;5349247;26;21877;-77
2024/04/26 04:45:52;;;;;;;17.23;9.07;;;;;;;17.11;60.21;99201.13;5351158;26;20003;-76
2024/04/26 04:48:21;;;;;;;15.90;8.60;;;;;;;17.26;59.79;99209.25;5401565;26;20079;-79
2024/04/26 04:50:50;;;;;;;;;;;;;;;17.32;59.62;99208.97;5374928;26;20438;-73
2024/04/26 04:53:16;;;;;;;19.27;8.80;;;;;;;17.30;59.55;99185.38;5377769;26;19933;-75
2024/04/26 04:55:42;;;;;;;17.05;8.82;;;;;;;17.51;58.70;99187.91;5375528;26;20082;-75
2024/04/26 04:58:08;;;;;;;16.55;8.65;;;;;;;17.82;58.89;99197.00;5379176;26;20007;-75
2024/04/26 05:00:34;;;;;;;21.73;10.10;;;;;;;17.92;57.78;99197.38;5405306;26;20014;-75
2024/04/26 05:03:00;;;;;;;23.10;10.15;;;;;;;18.04;58.67;99190.69;5344597;26;20358;-76
2024/04/26 05:05:26;;;;;;;21.02;10.95;;;;;;;18.41;57.81;99201.19;5377849;26;20474;-74
2024/04/26 05:07:52;;;;;;;29.10;11.23;;;;;;;18.59;57.95;99180.91;5381608;26;20004;-78
2024/04/26 05:10:18;;;;;;;24.05;9.85;;;;;;;18.65;56.84;99201.69;5404795;26;20003;-75
2024/04/26 05:12:44;;;;;;;21.17;9.30;;;;;;;18.58;56.48;99185.34;5352767;26;20015;-78
2024/04/26 05:15:14;;;;;;;21.58;8.60;;;;;;;18.56;55.94;99191.59;5376143;26;20115;-76
2024/04/26 05:17:44;;;;;;;18.55;8.80;;;;;;;18.48;55.91;99213.09;5377705;26;20007;-75
2024/04/26 05:20:10;;;;;;;22.27;8.75;;;;;;;18.26;56.88;99198.38;5377703;26;20059;-75
2024/04/26 05:22:36;;;;;;;27.77;9.05;;;;;;;18.50;56.73;99204.19;5321744;26;20004;-75
2024/04/26 05:25:16;;;;;;;20.50;8.18;;;;;;;18.79;55.98;99211.50;5371296;26;20030;-77
2024/04/26 05:27:42;;;;;;;22.17;8.05;;;;;;;19.10;56.44;99212.53;5399474;26;20342;-76
2024/04/26 05:30:10;;;;;;;15.57;7.65;;;;;;;19.57;54.90;99211.72;5344815;26;20561;-76
2024/04/26 05:32:37;;;;;;;18.95;7.18;;;;;;;19.93;55.15;99201.84;5366789;26;20008;-77
2024/04/26 05:35:03;;;;;;;17.00;7.60;;;;;;;20.23;54.49;99187.81;5374738;26;20036;-77
2024/04/26 05:37:29;;;;;;;15.18;7.68;;;;;;;20.66;53.19;99194.97;5370392;26;20004;-76
2024/04/26 05:39:57;;;;;;;20.23;8.15;;;;;;;20.89;52.49;99195.41;5347082;26;20007;-77
2024/04/26 05:42:23;;;;;;;19.15;7.30;;;;;;;21.49;52.59;99190.81;5366326;26;20014;-71
2024/04/26 05:44:49;;;;;;;22.63;7.95;;;;;;;22.29;51.33;99186.53;5339754;26;20038;-75
2024/04/26 05:47:15;;;;;;;19.85;7.85;;;;;;;22.80;49.63;99167.19;5369594;26;20026;-80
2024/04/26 05:49:41;;;;;;;11.10;7.15;;;;;;;23.19;48.02;99191.03;5312660;26;19999;-78
2024/04/26 05:52:07;;;;;;;17.52;6.80;;;;;;;23.11;46.59;99168.53;5344167;26;20022;-75
2024/04/26 05:54:34;;;;;;;13.23;6.50;;;;;;;23.21;46.68;99158.13;5347386;26;20032;-77
2024/04/26 05:57:00;;;;;;;17.30;7.15;;;;;;;23.46;46.07;99127.16;5406803;26;20011;-75
2024/04/26 05:59:26;;;;;;;11.27;5.80;;;;;;;23.96;44.14;99169.50;5380812;26;20004;-76
2024/04/26 06:01:52;;;;;;;14.05;6.78;;;;;;;24.08;44.49;99182.88;5369629;26;20074;-72
2024/04/26 06:04:18;;;;;;;13.98;7.05;;;;;;;24.96;43.91;99171.69;5371736;26;20088;-74
2024/04/26 06:06:45;;;;;;;13.20;6.10;;;;;;;25.83;41.74;99183.44;5367200;26;20011;-71
2024/04/26 06:09:12;;;;;;;21.05;12.35;;;;;;;26.66;40.59;99181.94;5344199;26;20083;-72
2024/04/26 06:11:38;;;;;;;20.33;15.52;;;;;;;27.35;39.92;99175.06;5318829;26;20026;-73
2024/04/26 06:14:04;;;;;;;10.60;6.75;;;;;;;28.02;38.44;99174.44;5365818;26;20040;-74
2024/04/26 06:16:30;;;;;;;11.52;6.30;;;;;;;28.36;36.67;99179.34;5368216;26;20027;-71
2024/04/26 06:18:57;;;;;;;14.48;6.65;;;;;;;28.34;35.42;99170.66;5367204;26;20038;-74
2024/04/26 06:21:24;;;;;;;15.75;7.03;;;;;;;28.23;34.74;99179.69;5365113;26;20712;-72
2024/04/26 06:23:50;;;;;;;11.68;6.38;;;;;;;28.56;34.48;99213.13;5340641;26;20059;-75
2024/04/26 06:26:16;;;;;;;20.38;11.63;;;;;;;28.99;34.42;99186.00;5365523;26;20015;-76
2024/04/26 06:28:44;;;;;;;11.02;6.70;;;;;;;29.27;33.37;99167.22;5396458;26;20015;-75
2024/04/26 06:31:10;;;;;;;10.85;6.20;;;;;;;29.23;31.70;99179.25;5338641;26;20527;-76
2024/04/26 06:33:36;;;;;;;16.83;6.72;;;;;;;29.39;32.48;99186.66;5374347;26;20509;-77
2024/04/26 06:36:04;;;;;;;14.07;7.07;;;;;;;30.16;30.83;99197.81;5394910;26;20017;-75
2024/04/26 06:38:30;;;;;;;15.98;6.50;;;;;;;30.46;29.96;99170.69;5401553;26;20015;-76
2024/04/26 06:40:56;;;;;;;12.02;6.65;;;;;;;30.05;30.10;99161.38;5339642;26;20416;-76
2024/04/26 06:43:22;;;;;;;13.23;6.68;;;;;;;30.18;30.69;99203.03;5341071;26;20014;-78
2024/04/26 06:45:48;;;;;;;11.52;6.63;;;;;;;29.65;30.80;99149.25;5341452;26;20008;-70
2024/04/26 06:48:15;;;;;;;10.35;6.50;;;;;;;29.83;30.92;99184.09;5375440;26;20011;-75
2024/04/26 06:50:44;;;;;;;12.15;7.13;;;;;;;30.33;29.19;99161.25;5345130;26;20004;-78
2024/04/26 06:53:12;;;;;;;11.93;6.72;;;;;;;30.87;29.31;99149.47;5367079;26;20022;-75
2024/04/26 06:55:38;;;;;;;13.55;6.60;;;;;;;31.24;29.18;99166.28;5383685;26;20023;-78
2024/04/26 06:58:04;;;;;;;19.58;6.72;;;;;;;31.99;29.20;99156.50;5344202;26;20022;-76
2024/04/26 07:00:30;;;;;;;12.93;6.75;;;;;;;33.07;26.45;99159.03;5394543;26;20057;-76
2024/04/26 07:02:57;;;;;;;12.82;6.22;;;;;;;33.44;27.28;99147.56;5364547;26;20080;-73
2024/04/26 07:05:23;;;;;;;10.43;6.38;;;;;;;34.15;26.16;99176.22;5334561;26;20007;-75
2024/04/26 07:07:49;;;;;;;9.35;6.22;;;;;;;34.08;25.08;99154.53;5363776;26;20020;-76
2024/04/26 07:10:17;;;;;;;15.95;6.57;;;;;;;34.77;24.89;99155.38;5364488;26;20550;-77
2024/04/26 07:12:47;;;;;;;9.60;6.25;;;;;;;35.40;24.42;99160.34;5366514;26;20007;-77
2024/04/26 07:15:13;;;;;;;12.20;5.97;;;;;;;35.16;23.69;99160.69;5342610;26;20026;-74
2024/04/26 07:17:43;;;;;;;14.07;6.80;;;;;;;35.19;23.62;99163.00;5335661;26;20015;-75
2024/04/26 07:20:09;;;;;;;10.95;6.68;;;;;;;35.53;23.30;99166.94;5337067;26;20090;-74
2024/04/26 07:22:35;;;;;;;19.85;7.20;;;;;;;35.76;23.50;99160.50;5304522;26;20424;-74
2024/04/26 07:25:01;;;;;;;13.07;6.47;;;;;;;35.32;22.81;99122.59;5320488;26;20037;-72
2024/04/26 07:27:31;;;;;;;;;;;;;;;35.44;22.95;99164.31;5337394;26;20104;-74
2024/04/26 07:29:57;;;;;;;13.07;6.90;;;;;;;35.93;23.88;99158.38;5380065;26;19981;-74
2024/04/26 07:32:24;;;;;;;11.90;7.28;;;;;;;36.34;22.12;99161.22;5359845;26;20150;-77
2024/04/26 07:34:50;;;;;;;15.23;7.22;;;;;;;35.72;21.94;99179.81;5355227;26;20677;-77
2024/04/26 07:37:16;;;;;;;14.93;7.25;;;;;;;34.98;22.84;99175.41;5332480;26;20502;-78
2024/04/26 07:39:42;;;;;;;11.95;7.10;;;;;;;35.46;23.12;99163.31;5357961;26;20012;-79
2024/04/26 07:42:10;;;;;;;22.98;8.23;;;;;;;35.88;22.45;99157.09;5338710;26;20725;-76
2024/04/26 07:44:40;;;;;;;16.15;7.55;;;;;;;35.59;22.24;99179.72;5365367;26;20001;-76
2024/04/26 07:47:09;;;;;;;14.05;7.65;;;;;;;35.57;23.03;99176.34;5360439;26;20591;-76
2024/04/26 07:49:36;;;;;;;18.02;6.82;;;;;;;36.07;23.12;99162.06;5368123;26;20087;-77
2024/04/26 07:52:02;;;;;;;13.75;7.00;;;;;;;37.59;21.88;99186.69;5335181;26;20012;-77
2024/04/26 07:54:28;;;;;;;12.40;6.88;;;;;;;37.53;19.54;99139.53;5364601;26;22414;-77
2024/04/26 07:56:54;;;;;;;17.58;7.15;;;;;;;37.83;20.30;99160.03;5388551;26;20000;-77
2024/04/26 07:59:20;;;;;;;13.82;7.10;;;;;;;39.02;19.98;99157.41;5361263;26;20090;-75
2024/04/26 08:01:46;;;;;;;12.35;7.20;;;;;;;38.82;18.91;99167.47;5366983;26;20716;-77
2024/04/26 08:04:13;;;;;;;14.07;6.88;;;;;;;38.05;19.91;99155.28;5362047;26;20014;-74
2024/04/26 08:06:39;;;;;;;14.07;6.70;;;;;;;38.66;19.58;99168.78;5368036;26;20008;-81
2024/04/26 08:09:06;;;;;;;15.07;7.05;;;;;;;39.16;19.27;99151.91;5361672;26;20024;-78
2024/04/26 08:11:32;;;;;;;22.75;7.47;;;;;;;39.66;18.88;99140.34;5361105;26;20015;-77
2024/04/26 08:13:58;;;;;;;16.35;8.38;;;;;;;39.80;18.32;99159.31;5337483;26;20000;-78
2024/04/26 08:16:24;;;;;;;13.50;7.05;;;;;;;38.44;19.46;99130.19;5363051;26;20008;-76
2024/04/26 08:18:51;;;;;;;17.75;7.88;;;;;;;37.92;18.78;99157.97;5366718;26;20048;-78
2024/04/26 08:21:18;;;;;;;12.05;6.75;;;;;;;38.29;20.03;99180.09;5402952;26;21173;-77
2024/04/26 08:23:44;;;;;;;11.27;6.18;;;;;;;37.27;19.35;99144.88;5400081;26;20476;-77
2024/04/26 08:26:10;;;;;;;18.38;7.00;;;;;;;37.28;20.64;99160.09;5401447;26;20011;-76
2024/04/26 08:28:36;;;;;;;15.23;7.30;;;;;;;36.69;19.44;99155.00;5400224;26;20003;-80
2024/04/26 08:31:02;;;;;;;22.75;12.20;;;;;;;35.77;21.12;99135.97;5370880;26;20000;-77
2024/04/26 08:33:28;;;;;;;17.40;7.53;;;;;;;35.77;20.95;99157.59;5366205;26;20405;-77
2024/04/26 08:35:55;;;;;;;15.82;7.10;;;;;;;36.16;20.88;99169.00;5396511;26;20012;-84
2024/04/26 08:38:21;;;;;;;17.70;7.47;;;;;;;36.25;21.40;99162.44;5314747;26;20069;-75
2024/04/26 08:40:48;;;;;;;24.13;8.10;;;;;;;37.08;20.52;99150.03;5336876;26;20000;-76
2024/04/26 08:43:15;;;;;;;15.10;7.43;;;;;;;37.45;20.04;99174.97;5338146;26;20003;-80
2024/04/26 08:45:43;;;;;;;15.80;7.25;;;;;;;36.91;20.21;99171.19;5339143;26;20004;-77
2024/04/26 08:48:11;;;;;;;25.60;7.85;;;;;;;37.00;19.96;99186.28;5362467;26;20015;-78
2024/04/26 08:50:38;;;;;;;16.98;7.28;;;;;;;36.24;20.90;99186.97;5366456;26;20013;-76
2024/04/26 08:53:07;;;;;;;19.23;7.80;;;;;;;35.49;21.33;99192.69;5338443;26;20025;-77
2024/04/26 08:55:34;;;;;;;17.92;8.68;;;;;;;35.44;21.33;99196.75;5384254;26;20030;-80
2024/04/26 08:58:03;;;;;;;20.85;7.43;;;;;;;34.69;21.86;99152.78;5336512;26;20076;-76
2024/04/26 09:00:33;;;;;;;18.55;7.90;;;;;;;34.62;22.47;99198.59;5395153;26;20114;-73
2024/04/26 09:03:03;;;;;;;15.43;7.45;;;;;;;34.00;22.81;99207.72;5394519;26;20469;-74
2024/04/26 09:05:31;;;;;;;17.52;8.27;;;;;;;33.42;23.39;99170.34;5371575;26;20003;-78
2024/04/26 09:07:59;;;;;;;20.75;7.75;;;;;;;33.02;24.63;99225.03;5373824;26;20361;-76
2024/04/26 09:10:26;;;;;;;16.98;8.27;;;;;;;32.43;24.48;99193.84;5366309;26;20007;-80
2024/04/26 09:12:52;;;;;;;19.15;8.27;;;;;;;32.47;24.70;99199.72;5372670;26;20015;-75
2024/04/26 09:15:19;;;;;;;23.50;8.00;;;;;;;32.69;25.36;99198.19;5370575;26;20015;-77
2024/04/26 09:17:45;;;;;;;16.67;7.40;;;;;;;33.09;25.60;99189.31;5363429;26;20016;-74
2024/04/26 09:20:12;;;;;;;19.92;9.35;;;;;;;32.86;23.97;99188.25;5358776;26;20054;-75
2024/04/26 09:22:39;;;;;;;21.25;8.82;;;;;;;32.07;25.75;99198.72;5302292;26;20004;-85
2024/04/26 09:25:14;;;;;;;17.83;7.53;;;;;;;31.04;25.38;99168.34;5307182;26;20012;-83
2024/04/26 09:27:40;;;;;;;15.50;7.75;;;;;;;29.98;27.04;99207.72;5360141;26;20064;-80
2024/04/26 09:30:07;;;;;;;28.27;8.10;;;;;;;29.11;27.49;99219.59;5335475;26;20012;-82
2024/04/26 09:32:33;;;;;;;14.68;8.02;;;;;;;28.14;29.85;99181.34;5357083;26;20032;-73
2024/04/26 09:35:02;;;;;;;16.45;7.85;;;;;;;27.57;30.12;99200.72;5363356;26;20019;-78
2024/04/26 09:37:34;;;;;;;14.43;7.93;;;;;;;27.04;31.28;99196.47;5339242;26;20100;-76
2024/04/26 09:40:01;;;;;;;19.17;8.05;;;;;;;26.76;31.86;99212.16;5353808;26;20011;-73
2024/04/26 09:42:32;;;;;;;20.70;8.05;;;;;;;26.25;32.59;99257.31;5311411;26;20015;-74
2024/04/26 09:45:01;;;;;;;15.70;7.80;;;;;;;25.19;34.04;99195.66;5358405;26;20020;-76
2024/04/26 09:47:32;;;;;;;15.35;8.68;;;;;;;24.92;34.84;99247.41;5338443;26;20076;-77
2024/04/26 09:50:00;;;;;;;15.38;7.50;;;;;;;24.41;35.68;99215.84;5326067;26;20008;-70
2024/04/26 09:52:27;;;;;;;16.17;7.95;;;;;;;24.31;36.17;99236.94;5364480;26;20019;-69
2024/04/26 09:54:55;;;;;;;18.38;8.30;;;;;;;24.06;36.70;99226.34;5335919;26;20015;-74
2024/04/26 09:57:21;;;;;;;25.02;8.90;;;;;;;23.99;37.15;99250.84;5362462;26;20037;-73
2024/04/26 09:59:47;;;;;;;18.90;7.93;;;;;;;23.64;37.51;99233.84;5356543;26;20020;-69
2024/04/26 10:02:20;;;;;;;13.70;7.43;;;;;;;23.54;37.99;99230.13;5360919;26;20417;-74
2024/04/26 10:04:49;;;;;;;24.35;9.07;;;;;;;23.46;38.42;99201.50;5337094;26;20023;-73
2024/04/26 10:07:22;;;;;;;17.85;8.05;;;;;;;23.92;38.53;99245.09;5361766;26;20466;-73
2024/04/26 10:09:56;;;;;;;16.92;8.00;;;;;;;24.31;38.53;99237.81;5362590;26;20019;-71
2024/04/26 10:12:30;;;;;;;19.38;8.90;;;;;;;24.30;37.60;99220.16;5363589;26;20011;-72
2024/04/26 10:15:10;;;;;;;16.92;8.70;;;;;;;24.63;37.36;99253.13;5370840;26;20023;-75
2024/04/26 10:17:50;;;;;;;21.13;8.35;;;;;;;24.60;37.06;99253.38;5322323;26;20004;-69
2024/04/26 10:20:17;;;;;;;15.75;8.18;;;;;;;24.45;37.72;99249.19;5335641;26;20055;-72
2024/04/26 10:23:12;;;;;;;17.13;9.10;;;;;;;24.33;37.76;99230.56;5365393;26;20023;-68
2024/04/26 10:25:39;;;;;;;16.27;8.15;;;;;;;24.70;37.71;99231.38;5383041;26;20008;-70
2024/04/26 10:28:16;;;;;;;25.45;9.13;;;;;;;24.93;37.43;99232.31;5304480;26;20000;-69
2024/04/26 10:30:47;;;;;;;20.27;8.73;;;;;;;25.04;37.16;99223.47;5356262;26;20583;-71
2024/04/26 10:33:18;;;;;;;16.38;8.40;;;;;;;24.98;36.95;99229.28;5328873;26;20410;-70
2024/04/26 10:35:45;;;;;;;18.90;8.00;;;;;;;24.73;37.45;99210.72;5332976;26;20088;-72
2024/04/26 10:38:12;;;;;;;21.08;8.40;;;;;;;24.61;37.61;99230.28;5332653;26;20367;-71
2024/04/26 10:40:52;;;;;;;18.73;8.63;;;;;;;24.65;38.34;99231.75;5361826;26;20167;-71
2024/04/26 10:43:22;;;;;;;15.95;8.30;;;;;;;24.85;37.83;99213.41;5384970;26;20428;-70
2024/04/26 10:45:53;;;;;;;19.58;7.93;;;;;;;25.11;37.45;99230.84;5333581;26;20203;-73
2024/04/26 10:48:20;;;;;;;19.73;9.40;;;;;;;25.21;37.35;99206.16;5339918;26;20048;-72
2024/04/26 10:50:46;;;;;;;22.48;8.18;;;;;;;25.41;37.08;99231.19;5354811;26;20505;-74
2024/04/26 10:53:13;;;;;;;19.02;8.50;;;;;;;24.96;36.61;99198.31;5331754;26;20104;-75
2024/04/26 10:55:40;;;;;;;20.90;8.00;;;;;;;25.00;36.93;99220.19;5353732;26;20073;-74
2024/04/26 10:58:07;;;;;;;14.30;7.45;;;;;;;25.02;37.11;99212.09;5307441;26;20055;-72
2024/04/26 11:00:38;;;;;;;16.65;7.13;;;;;;;25.15;37.15;99258.06;5359193;26;20024;-71
2024/04/26 11:03:12;;;;;;;17.70;7.68;;;;;;;25.21;37.57;99238.09;5320490;26;20004;-71
2024/04/26 11:05:46;;;;;;;17.60;7.80;;;;;;;25.37;36.55;99187.16;5337047;26;20074;-75
2024/04/26 11:08:27;;;;;;;19.52;7.03;;;;;;;25.66;36.54;99223.94;5310675;26;20009;-70
2024/04/26 11:10:57;;;;;;;27.63;10.27;;;;;;;25.34;37.38;99193.56;5358429;26;20005;-73
2024/04/26 11:13:28;;;;;;;12.63;6.82;;;;;;;25.47;37.55;99230.75;5359433;26;20059;-74
2024/04/26 11:15:54;;;;;;;15.20;7.95;;;;;;;24.87;37.45;99124.53;5359954;26;20020;-76
2024/04/26 11:18:22;;;;;;;16.70;8.48;;;;;;;25.42;37.30;99203.59;5365392;26;20004;-75
2024/04/26 11:20:48;;;;;;;19.77;7.38;;;;;;;25.71;36.90;99214.59;5342469;26;20530;-72
2024/04/26 11:23:14;;;;;;;15.68;7.35;;;;;;;25.74;36.85;99207.31;5401111;26;20104;-73